Time;durP1;ratioP1;P1;durP2;ratioP2;P2;SDS_P1;SDS_P2;PMS_P1;PMS_P2;Temp;Humidity;BMP_temperature;BMP_pressure;BME280_temperature;BME280_humidity;BME280_pressure;Samples;Min_cycle;Max_cycle;Signal;HPM_P1;HPM_P2
2022/01/31 00:00:19;;;;;;;2.95;1.72;;;;;;;1.63;100.00;142670.52;1754467;82;21110;-55
2022/01/31 00:02:47;;;;;;;3.80;1.72;;;;;;;1.64;100.00;142673.03;1754625;81;21501;-54
2022/01/31 00:05:14;;;;;;;3.20;1.55;;;;;;;1.68;100.00;142682.97;1746374;82;21043;-54
2022/01/31 00:07:43;;;;;;;4.40;2.20;;;;;;;1.70;100.00;142689.19;1754363;81;21540;-56
2022/01/31 00:10:13;;;;;;;4.15;2.02;;;;;;;1.71;100.00;142690.47;1754457;81;21001;-54
2022/01/31 00:13:04;;;;;;;6.35;2.40;;;;;;;1.66;100.00;142678.03;1754668;81;21525;-55
2022/01/31 00:15:14;;;;;;;6.00;2.60;;;;;;;1.59;100.00;142660.58;1687501;84;21044;-55
2022/01/31 00:17:43;;;;;;;5.37;2.22;;;;;;;1.51;100.00;142643.16;1679524;85;21080;-56
2022/01/31 00:20:11;;;;;;;5.17;2.98;;;;;;;1.45;100.00;142626.95;1679549;85;21076;-55
2022/01/31 00:22:39;;;;;;;4.40;2.65;;;;;;;1.45;100.00;142628.23;1679751;85;21037;-55
2022/01/31 00:25:08;;;;;;;3.80;1.90;;;;;;;1.44;100.00;142625.72;1692916;84;21531;-54
2022/01/31 00:27:35;;;;;;;3.52;1.67;;;;;;;1.43;100.00;142623.25;1708050;83;21036;-55
2022/01/31 00:30:04;;;;;;;4.45;1.92;;;;;;;1.38;100.00;142609.56;1700976;83;21085;-56
2022/01/31 00:32:32;;;;;;;4.22;1.90;;;;;;;1.31;100.00;142593.38;1679900;85;21054;-56
2022/01/31 00:34:59;;;;;;;4.33;1.82;;;;;;;1.30;100.00;142590.91;1691113;84;21596;-55
2022/01/31 00:37:26;;;;;;;4.05;2.10;;;;;;;1.26;100.00;142580.92;1708072;83;21068;-56
2022/01/31 00:39:53;;;;;;;6.00;2.50;;;;;;;1.24;100.00;142575.94;1708124;84;21091;-56
2022/01/31 00:42:24;;;;;;;5.22;2.17;;;;;;;1.21;100.00;142568.48;1707952;84;21553;-56
2022/01/31 00:44:54;;;;;;;5.90;2.60;;;;;;;1.15;100.00;142553.58;1698189;84;21056;-57
2022/01/31 00:47:25;;;;;;;4.83;2.30;;;;;;;1.15;100.00;142553.58;1679448;85;21024;-54
2022/01/31 00:50:06;;;;;;;5.97;2.67;;;;;;;1.16;100.00;142556.05;1679879;84;21483;-55
2022/01/31 00:52:21;;;;;;;4.87;2.40;;;;;;;1.18;100.00;142561.03;1677946;84;21574;-56
2022/01/31 00:54:48;;;;;;;3.08;1.65;;;;;;;1.24;100.00;142575.94;1708233;84;21016;-57
2022/01/31 00:57:15;;;;;;;2.90;1.67;;;;;;;1.30;100.00;142590.91;1707969;84;21355;-57
2022/01/31 00:59:42;;;;;;;3.25;1.47;;;;;;;1.34;100.00;142600.83;1699484;84;21045;-58
2022/01/31 01:02:08;;;;;;;2.75;1.55;;;;;;;1.38;100.00;142610.80;1679742;85;21036;-56
2022/01/31 01:04:37;;;;;;;2.77;1.55;;;;;;;1.40;100.00;142614.50;1689305;83;21041;-56
2022/01/31 01:07:04;;;;;;;2.70;1.65;;;;;;;1.39;100.00;142613.28;1708225;84;21522;-55
2022/01/31 01:09:31;;;;;;;4.60;2.05;;;;;;;1.36;100.00;142604.58;1705136;83;21546;-56
2022/01/31 01:11:58;;;;;;;3.90;1.60;;;;;;;1.36;100.00;142605.81;1678652;85;21045;-56
2022/01/31 01:14:24;;;;;;;3.72;1.90;;;;;;;1.40;100.00;142615.80;1684239;84;21032;-55
2022/01/31 01:16:51;;;;;;;3.50;1.98;;;;;;;1.42;100.00;142620.73;1705806;84;21077;-56
2022/01/31 01:19:18;;;;;;;1.95;1.22;;;;;;;1.42;100.00;142620.73;1678808;85;21534;-55
2022/01/31 01:21:45;;;;;;;4.58;1.77;;;;;;;1.41;100.00;142618.25;1683982;84;21096;-57
2022/01/31 01:24:14;;;;;;;3.60;1.80;;;;;;;1.34;100.00;142600.83;1698138;84;21146;-57
2022/01/31 01:26:43;;;;;;;5.45;2.02;;;;;;;1.29;100.00;142588.39;1678945;85;21080;-57
2022/01/31 01:29:12;;;;;;;3.70;1.57;;;;;;;1.26;100.00;142580.92;1660042;85;21025;-55
2022/01/31 01:31:39;;;;;;;3.35;1.50;;;;;;;1.23;100.00;142574.70;1678885;85;21072;-56
2022/01/31 01:34:06;;;;;;;3.33;1.50;;;;;;;1.26;100.00;142580.92;1681968;84;21522;-57
2022/01/31 01:36:35;;;;;;;3.15;1.20;;;;;;;1.27;100.00;142583.41;1678876;85;21084;-56
2022/01/31 01:39:02;;;;;;;3.08;1.22;;;;;;;1.24;100.00;142575.94;1678647;85;21090;-56
2022/01/31 01:41:29;;;;;;;2.37;0.98;;;;;;;1.21;100.00;142569.72;1678978;85;21038;-55
2022/01/31 01:43:56;;;;;;;2.25;1.00;;;;;;;1.21;100.00;142568.48;1678949;84;21065;-55
2022/01/31 01:46:22;;;;;;;1.92;1.00;;;;;;;1.21;100.00;142568.48;1679063;84;21061;-56
2022/01/31 01:48:50;;;;;;;2.40;1.05;;;;;;;1.19;100.00;142564.73;1678940;84;21088;-57
2022/01/31 01:51:17;;;;;;;1.40;0.90;;;;;;;1.16;100.00;142556.05;1678936;85;21080;-56
2022/01/31 01:53:44;;;;;;;2.65;1.30;;;;;;;1.14;100.00;142552.30;1684924;83;21574;-55
2022/01/31 01:56:13;;;;;;;1.20;0.85;;;;;;;1.15;100.00;142553.58;1678883;84;21053;-56
2022/01/31 01:58:43;;;;;;;2.60;1.15;;;;;;;1.12;100.00;142546.08;1679161;85;21033;-56
2022/01/31 02:01:12;;;;;;;2.72;1.40;;;;;;;1.13;100.00;142548.59;1678932;84;21009;-56
2022/01/31 02:03:47;;;;;;;2.25;1.12;;;;;;;1.14;100.00;142552.30;1693999;83;21084;-57
2022/01/31 02:06:14;;;;;;;2.15;1.10;;;;;;;1.18;100.00;142561.03;1706959;84;21052;-56
2022/01/31 02:08:44;;;;;;;2.52;1.00;;;;;;;1.18;100.00;142561.03;1706853;83;21488;-57
2022/01/31 02:11:14;;;;;;;1.50;0.90;;;;;;;1.15;100.00;142554.81;1707037;84;21009;-57
2022/01/31 02:13:45;;;;;;;2.85;1.02;;;;;;;1.15;100.00;142553.58;1691097;84;21060;-56
2022/01/31 02:16:12;;;;;;;2.45;1.20;;;;;;;1.17;100.00;142558.52;1678827;84;21076;-58
2022/01/31 02:18:56;;;;;;;1.95;1.00;;;;;;;1.17;100.00;142558.52;1643464;87;21133;-56
2022/01/31 02:21:45;;;;;;;2.20;0.98;;;;;;;1.17;100.00;142558.52;1609650;88;21598;-56
2022/01/31 02:24:31;;;;;;;2.00;0.98;;;;;;;1.13;100.00;142548.59;1591281;88;21133;-56
2022/01/31 02:27:06;;;;;;;2.05;1.10;;;;;;;1.03;100.00;142526.17;1668338;84;21146;-57
2022/01/31 02:29:33;;;;;;;2.05;1.00;;;;;;;0.97;100.00;142510.03;1711456;84;21019;-57
2022/01/31 02:32:00;;;;;;;2.22;1.12;;;;;;;0.95;100.00;142505.05;1711015;84;21012;-56
2022/01/31 02:34:26;;;;;;;2.60;1.07;;;;;;;0.92;100.00;142498.83;1738618;81;21590;-56
2022/01/31 02:36:53;;;;;;;1.75;0.98;;;;;;;0.94;100.00;142502.53;1721302;82;21013;-55
2022/01/31 02:39:20;;;;;;;2.20;1.10;;;;;;;0.85;100.00;142482.64;1711309;84;21046;-55
2022/01/31 02:41:48;;;;;;;2.62;1.32;;;;;;;0.83;100.00;142476.42;1711118;83;21534;-56
2022/01/31 02:44:16;;;;;;;2.27;1.10;;;;;;;0.82;100.00;142473.95;1732152;82;20985;-56
2022/01/31 02:46:53;;;;;;;1.95;1.00;;;;;;;0.85;100.00;142481.41;1738018;82;21105;-57
2022/01/31 02:49:24;;;;;;;2.02;0.95;;;;;;;0.82;100.00;142473.95;1727116;82;21036;-56
2022/01/31 02:51:58;;;;;;;2.45;1.25;;;;;;;0.80;100.00;142468.97;1725743;82;21503;-57
2022/01/31 02:54:25;;;;;;;3.67;1.25;;;;;;;0.80;100.00;142468.97;1740875;82;21021;-56
2022/01/31 02:56:53;;;;;;;2.05;0.95;;;;;;;0.75;100.00;142456.53;1738252;82;21065;-55
2022/01/31 02:59:19;;;;;;;2.20;0.90;;;;;;;0.71;100.00;142446.56;1740708;82;21033;-56
2022/01/31 03:01:47;;;;;;;1.47;0.90;;;;;;;0.68;100.00;142440.34;1726741;82;21051;-55
2022/01/31 03:04:14;;;;;;;2.85;1.00;;;;;;;0.62;100.00;142426.67;1711246;84;21012;-56
2022/01/31 03:06:47;;;;;;;1.80;0.95;;;;;;;0.59;100.00;142417.98;1711059;84;21036;-55
2022/01/31 03:09:10;;;;;;;1.92;0.85;;;;;;;0.62;100.00;142426.67;1710459;84;21632;-54
2022/01/31 03:11:39;;;;;;;2.17;1.00;;;;;;;0.62;100.00;142425.44;1720703;82;21503;-55
2022/01/31 03:14:09;;;;;;;2.83;0.93;;;;;;;0.67;100.00;142436.64;1740657;81;20993;-55
2022/01/31 03:16:40;;;;;;;2.47;1.37;;;;;;;0.73;100.00;142451.53;1740794;81;21041;-55
2022/01/31 03:19:20;;;;;;;1.57;1.02;;;;;;;0.73;100.00;142452.78;1740482;81;21515;-54
2022/01/31 03:21:49;;;;;;;3.05;1.20;;;;;;;0.73;100.00;142451.53;1671943;85;21530;-55
2022/01/31 03:24:16;;;;;;;2.67;1.10;;;;;;;0.72;100.00;142449.08;1657956;86;21021;-55
2022/01/31 03:26:42;;;;;;;3.58;1.35;;;;;;;0.77;100.00;142462.75;1657588;85;21110;-54
2022/01/31 03:29:09;;;;;;;3.72;1.30;;;;;;;0.84;100.00;142478.89;1677325;84;21067;-55
2022/01/31 03:31:37;;;;;;;3.62;1.30;;;;;;;0.86;100.00;142483.88;1721497;81;21072;-56
2022/01/31 03:34:04;;;;;;;2.77;1.10;;;;;;;0.88;100.00;142488.86;1740669;81;21021;-54
2022/01/31 03:36:31;;;;;;;3.98;1.67;;;;;;;0.88;100.00;142488.86;1740416;81;21024;-53
2022/01/31 03:38:58;;;;;;;3.15;1.12;;;;;;;0.84;100.00;142480.17;1740581;82;21017;-54
2022/01/31 03:41:26;;;;;;;2.55;1.02;;;;;;;0.83;100.00;142476.42;1732142;81;21028;-55
2022/01/31 03:43:53;;;;;;;1.70;1.00;;;;;;;0.82;100.00;142473.95;1711297;84;21071;-54
2022/01/31 03:46:21;;;;;;;1.62;0.90;;;;;;;0.79;100.00;142466.45;1711093;82;21076;-55
2022/01/31 03:48:48;;;;;;;2.90;1.20;;;;;;;0.77;100.00;142461.52;1711130;82;21036;-56
2022/01/31 03:51:20;;;;;;;1.60;0.85;;;;;;;0.67;100.00;142436.64;1710631;81;21044;-58
2022/01/31 03:53:46;;;;;;;2.12;1.07;;;;;;;0.61;100.00;142422.92;1740638;82;20969;-56
2022/01/31 03:56:14;;;;;;;2.37;1.20;;;;;;;0.60;100.00;142420.45;1740326;82;21028;-56
2022/01/31 03:58:43;;;;;;;1.57;0.80;;;;;;;0.59;100.00;142417.98;1738817;82;21021;-57
2022/01/31 04:01:11;;;;;;;2.50;1.10;;;;;;;0.55;100.00;142409.25;1715150;82;20996;-56
2022/01/31 04:03:38;;;;;;;4.72;1.10;;;;;;;0.58;100.00;142415.47;1710955;84;21040;-56
2022/01/31 04:06:05;;;;;;;2.50;1.05;;;;;;;0.63;100.00;142427.91;1712989;82;21051;-55
2022/01/31 04:08:32;;;;;;;5.87;2.35;;;;;;;0.64;100.00;142431.66;1710895;84;21012;-55
2022/01/31 04:11:00;;;;;;;2.98;1.30;;;;;;;0.64;100.00;142431.66;1710888;83;21111;-56
2022/01/31 04:13:26;;;;;;;2.30;1.05;;;;;;;0.61;100.00;142422.92;1710929;84;21049;-55
2022/01/31 04:15:53;;;;;;;1.25;0.88;;;;;;;0.63;100.00;142427.91;1711659;82;21037;-54
2022/01/31 04:18:22;;;;;;;2.50;1.27;;;;;;;0.63;100.00;142427.91;1711065;84;21048;-55
2022/01/31 04:20:48;;;;;;;1.57;0.93;;;;;;;0.63;100.00;142429.14;1711000;84;22016;-55
2022/01/31 04:23:18;;;;;;;2.67;1.20;;;;;;;0.63;100.00;142429.14;1711282;84;21028;-56
2022/01/31 04:25:53;;;;;;;2.35;1.15;;;;;;;0.60;100.00;142421.69;1730687;82;21478;-56
2022/01/31 04:28:25;;;;;;;2.70;1.20;;;;;;;0.59;100.00;142417.98;1739853;81;21527;-55
2022/01/31 04:31:00;;;;;;;3.08;1.37;;;;;;;0.56;100.00;142410.48;1740771;82;21111;-57
2022/01/31 04:33:27;;;;;;;5.35;1.10;;;;;;;0.54;100.00;142406.78;1740723;81;21044;-58
2022/01/31 04:35:54;;;;;;;3.17;1.22;;;;;;;0.57;100.00;142414.23;1719127;82;21506;-56
2022/01/31 04:38:22;;;;;;;3.30;1.20;;;;;;;0.60;100.00;142421.69;1711016;83;21647;-56
2022/01/31 04:40:49;;;;;;;1.82;0.95;;;;;;;0.59;100.00;142419.22;1711027;84;21504;-57
2022/01/31 04:43:15;;;;;;;2.75;1.10;;;;;;;0.59;100.00;142417.98;1711126;84;21052;-56
2022/01/31 04:45:47;;;;;;;3.92;1.30;;;;;;;0.59;100.00;142419.22;1726228;82;21045;-55
2022/01/31 04:48:11;;;;;;;2.90;1.20;;;;;;;0.64;100.00;142431.66;1696077;83;21056;-55
2022/01/31 04:50:37;;;;;;;2.35;1.22;;;;;;;0.66;100.00;142435.36;1706458;82;21041;-58
2022/01/31 04:53:04;;;;;;;2.75;1.25;;;;;;;0.63;99.99;142427.91;1711343;82;21000;-57
2022/01/31 04:55:31;;;;;;;2.02;0.85;;;;;;;0.60;100.00;142421.69;1719590;82;21021;-56
2022/01/31 04:57:57;;;;;;;2.25;1.00;;;;;;;0.60;99.86;142420.45;1740701;82;21558;-58
2022/01/31 05:00:25;;;;;;;2.15;1.10;;;;;;;0.54;99.77;142406.78;1738339;81;21029;-55
2022/01/31 05:02:53;;;;;;;2.25;0.90;;;;;;;0.55;99.98;142409.25;1740503;82;21029;-55
2022/01/31 05:05:20;;;;;;;4.28;1.07;;;;;;;0.54;99.91;142406.78;1738890;81;21025;-56
2022/01/31 05:07:47;;;;;;;3.22;0.98;;;;;;;0.54;100.00;142406.78;1711339;84;21021;-55
2022/01/31 05:10:13;;;;;;;4.90;1.47;;;;;;;0.51;99.79;142399.33;1714217;82;21533;-55
2022/01/31 05:12:41;;;;;;;4.67;1.98;;;;;;;0.46;99.60;142385.61;1743466;82;21036;-55
2022/01/31 05:15:09;;;;;;;2.70;0.98;;;;;;;0.38;99.26;142366.97;1748891;82;21017;-55
2022/01/31 05:17:37;;;;;;;2.65;0.95;;;;;;;0.32;99.80;142352.06;1727023;82;20988;-57
2022/01/31 05:20:05;;;;;;;5.62;1.00;;;;;;;0.30;99.90;142347.08;1735078;81;21541;-56
2022/01/31 05:22:33;;;;;;;2.08;1.07;;;;;;;0.31;100.00;142349.59;1733139;82;21016;-57
2022/01/31 05:25:00;;;;;;;3.75;1.00;;;;;;;0.31;100.00;142349.59;1732504;81;21012;-56
2022/01/31 05:27:26;;;;;;;4.28;1.00;;;;;;;0.30;100.00;142348.31;1734148;81;21075;-56
2022/01/31 05:29:53;;;;;;;2.27;1.07;;;;;;;0.27;100.00;142340.87;1733096;82;21502;-55
2022/01/31 05:32:20;;;;;;;2.17;0.88;;;;;;;0.23;100.00;142329.67;1732916;81;21009;-56
2022/01/31 05:34:47;;;;;;;2.33;1.25;;;;;;;0.20;100.00;142324.73;1735290;82;21501;-55
2022/01/31 05:37:14;;;;;;;1.52;0.70;;;;;;;0.16;100.00;142313.53;1735116;82;20965;-56
2022/01/31 05:39:42;;;;;;;3.30;1.40;;;;;;;0.12;100.00;142304.81;1734236;82;21047;-57
2022/01/31 05:42:10;;;;;;;1.67;0.70;;;;;;;0.13;100.00;142307.31;1723011;82;21064;-57
2022/01/31 05:44:36;;;;;;;3.27;1.00;;;;;;;0.17;100.00;142316.00;1732334;82;20989;-56
2022/01/31 05:47:04;;;;;;;1.45;0.90;;;;;;;0.18;100.00;142319.75;1733169;82;21541;-57
2022/01/31 05:49:32;;;;;;;4.53;1.05;;;;;;;0.20;100.00;142324.73;1735064;81;21040;-56
2022/01/31 05:52:04;;;;;;;1.87;1.27;;;;;;;0.23;100.00;142329.67;1733948;82;21016;-55
2022/01/31 05:54:35;;;;;;;4.65;1.65;;;;;;;0.18;100.00;142319.75;1732178;82;21016;-55
2022/01/31 05:57:03;;;;;;;3.80;1.20;;;;;;;0.23;100.00;142329.67;1726859;82;21004;-54
2022/01/31 05:59:30;;;;;;;5.37;1.50;;;;;;;0.26;100.00;142338.39;1719054;82;21016;-54
2022/01/31 06:01:58;;;;;;;2.65;0.98;;;;;;;0.33;100.00;142354.53;1721018;82;21526;-54
2022/01/31 06:04:25;;;;;;;3.35;1.50;;;;;;;0.35;100.00;142359.52;1719054;82;21586;-54
2022/01/31 06:06:54;;;;;;;2.60;1.20;;;;;;;0.36;100.00;142362.03;1719138;82;21035;-55
2022/01/31 06:09:21;;;;;;;2.72;1.20;;;;;;;0.39;100.00;142369.47;1718908;82;21545;-59
2022/01/31 06:11:49;;;;;;;2.55;1.17;;;;;;;0.40;100.00;142371.95;1731851;82;20989;-63
2022/01/31 06:14:17;;;;;;;4.12;1.22;;;;;;;0.39;100.00;142369.47;1722641;81;21172;-62
2022/01/31 06:16:44;;;;;;;2.25;1.30;;;;;;;0.36;100.00;142363.27;1718965;82;21067;-62
2022/01/31 06:19:10;;;;;;;3.17;1.10;;;;;;;0.32;100.00;142352.06;1719085;83;21040;-62
2022/01/31 06:21:38;;;;;;;1.30;1.00;;;;;;;0.29;100.00;142344.61;1723863;82;21843;-63
2022/01/31 06:24:09;;;;;;;1.55;0.95;;;;;;;0.24;100.00;142332.19;1723292;82;20989;-63
2022/01/31 06:26:35;;;;;;;3.67;1.07;;;;;;;0.21;100.00;142327.20;1744510;82;21020;-64
2022/01/31 06:29:09;;;;;;;2.12;1.17;;;;;;;0.17;100.00;142316.00;1703177;82;21064;-62
2022/01/31 06:31:39;;;;;;;2.98;1.02;;;;;;;0.11;100.00;142301.11;1699716;84;21617;-63
2022/01/31 06:34:07;;;;;;;2.87;1.17;;;;;;;0.07;100.00;142292.37;1703871;84;21098;-96
2022/01/31 06:36:34;;;;;;;2.40;0.90;;;;;;;0.06;100.00;142289.91;1700368;84;21092;-62
2022/01/31 06:39:01;;;;;;;5.40;1.05;;;;;;;0.03;100.00;142282.47;1685560;84;21036;-67
2022/01/31 06:41:28;;;;;;;3.30;1.10;;;;;;;-0.03;100.00;142267.52;1672243;86;21052;-63
2022/01/31 06:43:56;;;;;;;2.72;1.20;;;;;;;-0.02;100.00;142270.03;1672329;86;21051;-65
2022/01/31 06:46:23;;;;;;;2.60;1.45;;;;;;;0.00;100.00;142275.02;1672482;84;21064;-63
2022/01/31 06:48:50;;;;;;;2.12;1.02;;;;;;;0.02;100.00;142278.72;1686169;84;21036;-63
2022/01/31 06:51:18;;;;;;;2.37;0.98;;;;;;;0.07;100.00;142291.14;1700300;84;21040;-62
2022/01/31 06:53:48;;;;;;;4.85;2.22;;;;;;;0.11;100.00;142301.11;1688553;84;21007;-60
2022/01/31 06:56:16;;;;;;;5.22;2.47;;;;;;;0.16;100.00;142313.53;1685794;84;20996;-63
2022/01/31 06:58:43;;;;;;;1.72;1.05;;;;;;;0.27;100.00;142339.63;1688246;84;21075;-61
2022/01/31 07:01:11;;;;;;;2.10;1.32;;;;;;;0.21;100.00;142325.97;1679121;84;21036;-65
2022/01/31 07:03:40;;;;;;;2.50;1.25;;;;;;;0.21;100.00;142327.20;1683521;84;21083;-63
2022/01/31 07:06:09;;;;;;;5.17;1.07;;;;;;;0.28;100.00;142343.37;1688032;83;21154;-64
2022/01/31 07:08:36;;;;;;;4.55;0.80;;;;;;;0.32;100.00;142353.30;1685603;84;21083;-59
2022/01/31 07:11:03;;;;;;;1.50;0.90;;;;;;;0.31;99.26;142349.59;1686549;84;21072;-66
2022/01/31 07:15:57;;;;;;;2.20;0.88;;;;;;;0.24;98.73;142332.19;1686835;83;21018;-61
2022/01/31 07:18:23;;;;;;;1.82;1.20;;;;;;;0.24;98.14;142332.19;1686347;84;21045;-63
2022/01/31 07:20:52;;;;;;;1.40;0.95;;;;;;;0.26;98.47;142338.39;1678538;84;21028;-66
2022/01/31 07:23:26;;;;;;;1.92;1.05;;;;;;;0.29;97.48;142344.61;1672371;86;21059;-62
2022/01/31 07:25:50;;;;;;;3.75;1.45;;;;;;;0.33;97.51;142354.53;1672187;84;21032;-65
2022/01/31 07:28:17;;;;;;;2.37;1.30;;;;;;;0.38;97.21;142366.97;1675932;84;21056;-65
2022/01/31 07:30:52;;;;;;;3.40;1.00;;;;;;;0.47;96.87;142389.36;1672484;84;21574;-62
2022/01/31 07:33:20;;;;;;;1.47;0.98;;;;;;;0.65;97.04;142434.13;1672541;86;21084;-63
2022/01/31 07:35:49;;;;;;;3.27;1.40;;;;;;;0.88;95.64;142487.63;1673484;84;21020;-63
2022/01/31 07:38:18;;;;;;;3.62;1.80;;;;;;;1.00;94.99;142517.48;1676391;84;21040;-62
2022/01/31 07:40:45;;;;;;;2.33;1.15;;;;;;;1.16;95.57;142557.28;1689576;84;21518;-63
2022/01/31 07:43:13;;;;;;;2.25;1.20;;;;;;;1.28;95.22;142585.91;1700296;84;21038;-64
2022/01/31 07:45:40;;;;;;;3.58;1.60;;;;;;;1.33;93.51;142598.36;1700277;84;21096;-62
2022/01/31 07:48:07;;;;;;;2.83;1.90;;;;;;;1.21;93.45;142569.72;1675770;84;21067;-63
2022/01/31 07:50:36;;;;;;;4.45;1.45;;;;;;;1.19;93.29;142563.50;1672578;84;21506;-61
2022/01/31 07:53:04;;;;;;;3.52;1.07;;;;;;;1.26;94.14;142580.92;1672309;86;21056;-63
2022/01/31 07:55:33;;;;;;;5.55;1.20;;;;;;;1.35;93.50;142602.06;1678380;84;21024;-61
2022/01/31 07:58:00;;;;;;;3.12;1.10;;;;;;;1.45;93.46;142628.23;1688781;84;21181;-62
2022/01/31 08:00:27;;;;;;;2.70;0.90;;;;;;;1.49;92.30;142638.16;1700583;83;21569;-63
2022/01/31 08:02:53;;;;;;;1.87;0.90;;;;;;;1.43;91.16;142622.02;1700077;84;21048;-63
2022/01/31 08:05:21;;;;;;;3.20;1.00;;;;;;;1.20;90.98;142567.25;1696042;84;21536;-62
2022/01/31 08:07:49;;;;;;;2.72;1.20;;;;;;;0.95;91.62;142506.28;1676444;84;21052;-63
2022/01/31 08:10:16;;;;;;;3.52;0.88;;;;;;;0.82;92.34;142475.19;1672205;84;21063;-63
2022/01/31 08:12:45;;;;;;;2.87;1.10;;;;;;;0.81;93.19;142471.44;1672231;86;21088;-64
2022/01/31 08:15:21;;;;;;;1.62;1.00;;;;;;;0.72;93.13;142449.08;1672384;85;21024;-65
2022/01/31 08:17:41;;;;;;;2.42;1.07;;;;;;;0.64;93.72;142431.66;1679467;83;21526;-62
2022/01/31 08:20:10;;;;;;;2.85;1.32;;;;;;;0.53;93.99;142404.27;1700462;84;21063;-63
2022/01/31 08:22:38;;;;;;;1.90;0.90;;;;;;;0.45;93.42;142384.38;1688595;84;21071;-62
2022/01/31 08:25:13;;;;;;;3.05;1.30;;;;;;;0.41;94.17;142375.69;1698844;84;21513;-62
2022/01/31 08:27:37;;;;;;;2.60;0.93;;;;;;;0.47;94.50;142388.13;1703822;83;21091;-62
2022/01/31 08:30:11;;;;;;;2.45;1.20;;;;;;;0.45;93.24;142383.16;1659186;86;21550;-63
2022/01/31 08:32:43;;;;;;;3.02;1.40;;;;;;;0.42;93.69;142378.16;1680158;84;21027;-60
2022/01/31 08:37:49;;;;;;;1.75;0.90;;;;;;;0.46;92.95;142386.89;1697706;83;21082;-63
2022/01/31 08:40:17;;;;;;;1.60;0.88;;;;;;;0.44;92.66;142381.91;1683809;84;21039;-63
2022/01/31 08:42:44;;;;;;;2.20;1.10;;;;;;;0.49;92.62;142394.34;1671723;84;21600;-63
2022/01/31 08:45:11;;;;;;;2.52;1.22;;;;;;;0.61;92.76;142424.20;1671085;86;21176;-59
2022/01/31 08:47:41;;;;;;;3.98;1.37;;;;;;;0.67;91.61;142436.64;1671030;84;21020;-61
2022/01/31 08:50:09;;;;;;;2.95;1.07;;;;;;;0.76;92.05;142459.00;1671205;85;21631;-61
2022/01/31 08:52:36;;;;;;;3.05;1.00;;;;;;;0.76;88.70;142460.23;1679140;83;21067;-61
2022/01/31 08:55:04;;;;;;;2.12;0.95;;;;;;;0.67;88.77;142436.64;1697144;84;21103;-61
2022/01/31 08:57:32;;;;;;;2.37;1.10;;;;;;;0.67;88.08;142436.64;1699564;84;21079;-60
2022/01/31 09:00:00;;;;;;;2.47;1.07;;;;;;;0.74;88.34;142454.02;1672769;84;21079;-61
2022/01/31 09:02:39;;;;;;;2.60;1.27;;;;;;;0.74;87.87;142454.02;1680425;84;21135;-60
2022/01/31 09:04:59;;;;;;;3.60;1.10;;;;;;;0.81;88.23;142471.44;1671223;84;21138;-59
2022/01/31 09:07:27;;;;;;;1.57;0.93;;;;;;;0.89;87.46;142491.38;1691033;84;21080;-61
2022/01/31 09:09:54;;;;;;;2.80;1.00;;;;;;;0.95;86.35;142505.05;1699552;84;21115;-63
2022/01/31 09:12:24;;;;;;;2.45;1.40;;;;;;;0.93;86.69;142501.30;1684037;83;21578;-60
2022/01/31 09:14:51;;;;;;;2.40;1.30;;;;;;;0.98;86.78;142512.50;1675154;84;21529;-61
2022/01/31 09:17:18;;;;;;;3.10;1.50;;;;;;;1.00;86.70;142517.48;1691845;83;21570;-60
2022/01/31 09:19:45;;;;;;;3.02;1.32;;;;;;;1.04;86.76;142528.69;1685142;84;21123;-60
2022/01/31 09:22:12;;;;;;;3.17;1.60;;;;;;;1.01;86.98;142521.19;1686402;84;21134;-60
2022/01/31 09:24:40;;;;;;;3.55;1.82;;;;;;;1.02;87.22;142523.70;1692892;83;21100;-60
2022/01/31 09:27:10;;;;;;;2.30;1.22;;;;;;;1.08;87.25;142538.62;1720542;82;21498;-60
2022/01/31 09:29:38;;;;;;;3.35;1.05;;;;;;;1.13;87.19;142549.81;1718095;83;21580;-59
2022/01/31 09:32:05;;;;;;;1.77;1.20;;;;;;;1.14;85.97;142551.06;1720125;82;21020;-59
2022/01/31 09:34:33;;;;;;;3.95;1.40;;;;;;;1.07;86.13;142534.91;1718755;82;21055;-62
2022/01/31 09:37:01;;;;;;;3.85;1.32;;;;;;;1.00;86.23;142518.72;1719738;82;21041;-59
2022/01/31 09:39:28;;;;;;;2.90;1.35;;;;;;;0.90;86.55;142493.84;1718254;82;21032;-60
2022/01/31 09:41:57;;;;;;;2.37;1.37;;;;;;;0.95;86.99;142506.28;1732302;82;21070;-62
2022/01/31 09:45:14;;;;;;;2.40;1.22;;;;;;;0.99;86.52;142516.25;1747764;81;21474;-61
2022/01/31 09:49:32;;;;;;;2.87;1.40;;;;;;;1.06;86.29;142532.39;1720278;82;21131;-61
2022/01/31 09:51:59;;;;;;;1.98;1.05;;;;;;;1.03;86.39;142524.94;1718773;82;21628;-60
2022/01/31 09:54:27;;;;;;;2.45;1.20;;;;;;;0.93;86.36;142501.30;1737598;82;21581;-60
2022/01/31 09:56:54;;;;;;;3.40;1.50;;;;;;;0.89;87.06;142491.38;1725244;81;21059;-63
2022/01/31 09:59:21;;;;;;;3.10;1.32;;;;;;;0.85;87.26;142481.41;1689690;83;21510;-63
2022/01/31 10:01:54;;;;;;;4.37;1.60;;;;;;;0.80;87.53;142468.97;1739708;81;21098;-63
2022/01/31 10:04:24;;;;;;;3.25;1.70;;;;;;;0.82;88.12;142473.95;1709280;84;21078;-62
2022/01/31 10:06:56;;;;;;;3.05;1.37;;;;;;;0.88;88.23;142487.63;1718907;82;20976;-60
2022/01/31 10:09:31;;;;;;;2.75;1.45;;;;;;;0.90;87.66;142492.61;1728826;82;21341;-61
2022/01/31 10:12:22;;;;;;;7.25;1.50;;;;;;;0.77;87.97;142462.75;1743796;81;21056;-60
2022/01/31 10:17:45;;;;;;;4.75;1.40;;;;;;;0.56;89.42;142410.48;1710838;82;21005;-61
2022/01/31 10:20:28;;;;;;;3.00;1.72;;;;;;;0.58;89.93;142415.47;1712280;82;21075;-61
2022/01/31 10:23:08;;;;;;;2.58;1.40;;;;;;;0.47;90.22;142389.36;1721443;82;21110;-60
2022/01/31 10:25:36;;;;;;;4.42;1.60;;;;;;;0.40;90.54;142373.19;1710310;82;21126;-58
2022/01/31 10:28:19;;;;;;;1.90;1.05;;;;;;;0.43;90.87;142379.41;1716010;82;21095;-61
2022/01/31 10:30:51;;;;;;;4.08;1.40;;;;;;;0.41;90.53;142375.69;1717082;81;21538;-63
2022/01/31 10:33:20;;;;;;;3.35;1.60;;;;;;;0.41;90.81;142374.47;1739494;81;21044;-62
2022/01/31 10:35:46;;;;;;;4.78;1.40;;;;;;;0.38;90.38;142366.97;1721923;82;21107;-62
2022/01/31 10:38:18;;;;;;;2.75;1.20;;;;;;;0.40;90.22;142373.19;1712178;82;21040;-60
2022/01/31 10:44:02;;;;;;;2.55;1.37;;;;;;;0.36;90.02;142363.27;1736685;82;21024;-62
2022/01/31 10:56:49;;;;;;;3.77;2.17;;;;;;;0.37;89.97;142364.50;1709365;84;21076;-63
2022/01/31 10:59:21;;;;;;;2.45;1.47;;;;;;;0.39;89.97;142369.47;1721594;82;21068;-63
2022/01/31 11:01:51;;;;;;;2.55;1.42;;;;;;;0.46;89.49;142385.61;1722236;82;21016;-61
2022/01/31 11:04:19;;;;;;;2.80;1.67;;;;;;;0.46;89.53;142386.89;1725816;81;21027;-61
2022/01/31 11:06:49;;;;;;;3.50;1.42;;;;;;;0.51;89.22;142399.33;1710528;82;21007;-62
2022/01/31 11:09:19;;;;;;;3.00;1.40;;;;;;;0.48;89.06;142391.83;1710181;84;21020;-61
2022/01/31 11:11:49;;;;;;;2.98;1.40;;;;;;;0.49;88.90;142394.34;1714099;83;21070;-63
2022/01/31 11:14:17;;;;;;;2.55;1.35;;;;;;;0.49;88.48;142393.11;1723565;82;21067;-61
2022/01/31 11:16:48;;;;;;;3.67;1.50;;;;;;;0.49;88.76;142393.11;1724030;83;21048;-61
2022/01/31 11:19:22;;;;;;;2.17;1.27;;;;;;;0.48;88.80;142391.83;1723625;83;21586;-61
2022/01/31 11:21:49;;;;;;;3.45;1.50;;;;;;;0.47;89.11;142389.36;1727291;82;21114;-62
2022/01/31 11:24:27;;;;;;;2.55;1.17;;;;;;;0.49;89.23;142394.34;1749885;81;22345;-62
2022/01/31 11:27:09;;;;;;;3.50;1.35;;;;;;;0.50;89.16;142396.81;1756155;80;21020;-62
2022/01/31 11:29:41;;;;;;;3.25;1.60;;;;;;;0.47;88.76;142388.13;1760503;80;21324;-61
2022/01/31 11:32:09;;;;;;;3.47;1.52;;;;;;;0.39;88.97;142369.47;1715190;84;21122;-62
2022/01/31 11:34:43;;;;;;;3.12;1.42;;;;;;;0.44;88.94;142381.91;1745476;80;21073;-60
2022/01/31 11:37:16;;;;;;;4.15;1.77;;;;;;;0.46;88.56;142386.89;1749422;82;21053;-63
2022/01/31 11:39:54;;;;;;;4.42;1.50;;;;;;;0.48;88.40;142390.59;1753657;82;21595;-62
2022/01/31 11:42:21;;;;;;;4.58;1.50;;;;;;;0.52;87.67;142401.80;1702660;82;21557;-60
2022/01/31 11:45:27;;;;;;;2.25;1.40;;;;;;;0.72;87.62;142449.08;1723747;83;21118;-61
2022/01/31 11:47:58;;;;;;;2.37;1.20;;;;;;;0.85;86.46;142481.41;1723179;82;21090;-64
2022/01/31 11:50:28;;;;;;;3.67;1.50;;;;;;;0.92;85.36;142498.83;1724207;83;20991;-61
2022/01/31 11:53:01;;;;;;;4.10;1.65;;;;;;;0.97;85.21;142511.27;1723633;82;21458;-62
2022/01/31 11:55:36;;;;;;;5.70;1.62;;;;;;;1.01;84.98;142521.19;1723691;83;21111;-59
2022/01/31 11:58:07;;;;;;;2.90;1.32;;;;;;;1.01;84.35;142521.19;1731395;82;21000;-60
2022/01/31 12:00:38;;;;;;;5.80;1.97;;;;;;;0.96;83.19;142508.75;1740148;82;21079;-62